To NAV CANADA Home Page Login to a new session Search on AWWS site Feedback and Comments Disclaimer Vers la page française équivalente Tips FAQ What's new on the site To the Forecasts and Observations / NOTAM section To "File a Flight Plan" website Publications and other links Update of the User's profile FIC Telephone Numbers My Weather Data Folder Route Weather Data Regional Weather Data Local Weather Data To the Forecasts and Observations / NOTAM section
Request Generated 04/18/2014 at 08:50:36 UTC . Weather information available at that time is displayed.

METAR/TAF

TORONTO/BILLY BISHOP TORONTO CITY AIRPORT/ON    (show WxCam)

METAR CYTZ 180800Z AUTO 08006KT 9SM OVC160 05/03 A3028 RMK SLP257=
METAR CYTZ 180700Z AUTO 07004KT 9SM OVC160 05/02 A3030 RMK SLP263=
METAR CYTZ 180600Z AUTO 06006KT 9SM BKN160 OVC180 04/02 A3032 RMK
PRESFR SLP270=

TAF CYTZ 180739Z 1808/1908 VRB03KT P6SM OVC160
FM181000 18005KT P6SM BKN060 OVC160
FM181600 23012KT P6SM -SHRA OVC030
BECMG 1818/1820 28010KT
FM182100 29012KT P6SM BKN025
RMK FCST BASED ON AUTO OBS. NXT FCST BY 181400Z=
Your time UTC time
Weather data provided by Environment Canada and NAV CANADA